createdAt,value
2022-10-04T00:01:53.190Z,1.48
2022-10-04T00:04:23.392Z,1.30
2022-10-04T00:07:03.005Z,1.23
2022-10-04T00:10:02.069Z,1.40
2022-10-04T00:12:40.373Z,1.27
2022-10-04T00:15:27.513Z,1.27
2022-10-04T00:18:22.159Z,1.10
2022-10-04T00:20:53.728Z,1.40
2022-10-04T00:23:23.944Z,1.55
2022-10-04T00:25:56.244Z,1.17
2022-10-04T00:28:26.699Z,1.20
2022-10-04T00:31:15.983Z,1.10
2022-10-04T00:33:52.321Z,1.17
2022-10-04T00:36:25.587Z,1.30
2022-10-04T00:39:07.892Z,1.23
2022-10-04T00:41:58.995Z,1.17
2022-10-04T00:44:47.755Z,1.33
2022-10-04T00:47:55.287Z,1.27
2022-10-04T00:50:49.318Z,1.27
2022-10-04T00:53:45.886Z,1.20
2022-10-04T00:56:22.260Z,1.10
2022-10-04T00:59:10.293Z,1.10
2022-10-04T01:01:38.177Z,1.20
2022-10-04T01:04:14.329Z,1.30
2022-10-04T01:06:43.248Z,1.10
2022-10-04T01:09:13.092Z,1.42
2022-10-04T01:11:51.707Z,1.27
2022-10-04T01:14:32.574Z,1.30
2022-10-04T01:17:00.013Z,1.30
2022-10-04T01:19:31.277Z,1.02
2022-10-04T01:22:05.457Z,1.30
2022-10-04T01:24:37.766Z,1.20
2022-10-04T01:27:27.635Z,1.40
2022-10-04T01:29:55.201Z,1.20
2022-10-04T01:32:23.361Z,1.10
2022-10-04T01:34:51.039Z,1.20
2022-10-04T01:37:18.632Z,1.30
2022-10-04T01:39:46.093Z,1.20
2022-10-04T01:42:19.490Z,1.08
2022-10-04T01:45:10.478Z,1.08
2022-10-04T01:47:41.266Z,1.20
2022-10-04T01:50:16.065Z,1.15
2022-10-04T01:53:01.515Z,1.40
2022-10-04T01:55:36.287Z,1.30
2022-10-04T01:58:13.836Z,1.30
2022-10-04T02:00:51.653Z,1.10
2022-10-04T02:03:34.236Z,1.40
2022-10-04T02:06:05.873Z,1.15
2022-10-04T02:08:37.703Z,1.33
2022-10-04T02:11:06.288Z,1.25
2022-10-04T02:13:40.392Z,1.20
2022-10-04T02:16:12.671Z,1.30
2022-10-04T02:18:43.785Z,1.20
2022-10-04T02:23:41.308Z,1.30
2022-10-04T02:26:11.865Z,1.23
2022-10-04T02:28:40.807Z,1.17
2022-10-04T02:31:28.709Z,1.30
2022-10-04T02:33:59.390Z,1.50
2022-10-04T02:36:29.655Z,1.25
2022-10-04T02:39:16.054Z,1.27
2022-10-04T02:41:58.086Z,1.10
2022-10-04T02:44:34.161Z,1.10
2022-10-04T02:47:13.239Z,1.40
2022-10-04T02:49:50.090Z,1.33
2022-10-04T02:52:43.052Z,1.25
2022-10-04T02:55:21.582Z,1.20
2022-10-04T02:57:52.561Z,1.30
2022-10-04T03:00:22.168Z,1.40
2022-10-04T03:03:26.788Z,1.15
2022-10-04T03:06:04.279Z,1.30
2022-10-04T03:08:59.293Z,1.05
2022-10-04T03:11:35.225Z,1.00
2022-10-04T03:14:06.956Z,1.35
2022-10-04T03:16:40.930Z,1.20
2022-10-04T03:19:09.917Z,1.08
2022-10-04T03:21:39.205Z,1.27
2022-10-04T03:24:07.619Z,1.20
2022-10-04T03:26:57.057Z,1.60
2022-10-04T03:29:27.771Z,1.30
2022-10-04T03:31:58.409Z,0.98
2022-10-04T03:34:31.995Z,1.20
2022-10-04T03:37:01.250Z,1.60
2022-10-04T03:39:33.763Z,1.17
2022-10-04T03:42:10.761Z,1.00
2022-10-04T03:44:38.624Z,1.50
2022-10-04T03:47:19.721Z,1.33
2022-10-04T03:49:50.961Z,1.30
2022-10-04T03:52:25.452Z,1.30
2022-10-04T03:54:55.664Z,1.23
2022-10-04T03:57:23.554Z,1.20
2022-10-04T03:59:51.601Z,1.23
2022-10-04T04:02:21.811Z,1.30
2022-10-04T04:05:10.794Z,1.10
2022-10-04T04:07:45.908Z,1.20
2022-10-04T04:10:28.101Z,1.17
2022-10-04T04:13:01.521Z,1.00
2022-10-04T04:15:31.329Z,1.20
2022-10-04T04:18:05.832Z,1.15
2022-10-04T04:20:38.687Z,1.20
2022-10-04T04:23:19.764Z,1.00
2022-10-04T04:25:54.987Z,1.15
2022-10-04T04:28:51.149Z,1.10
2022-10-04T04:31:27.017Z,0.95
2022-10-04T04:34:00.762Z,1.00
2022-10-04T04:36:30.807Z,1.10
2022-10-04T04:39:36.877Z,1.30
2022-10-04T04:42:25.225Z,0.85
2022-10-04T04:44:57.175Z,1.17
2022-10-04T04:47:34.082Z,1.00
2022-10-04T04:50:35.962Z,1.00
2022-10-04T04:53:15.034Z,1.42
2022-10-04T04:56:03.915Z,0.90
2022-10-04T04:58:39.048Z,1.30
2022-10-04T05:01:41.918Z,1.10
2022-10-04T05:04:09.495Z,1.08
2022-10-04T05:06:43.145Z,1.10
2022-10-04T05:09:28.442Z,1.00
2022-10-04T05:12:02.593Z,1.20
2022-10-04T05:14:31.542Z,1.08
2022-10-04T05:16:59.143Z,1.10
2022-10-04T05:19:28.744Z,1.20
2022-10-04T05:21:59.514Z,1.25
2022-10-04T05:24:37.933Z,1.30
2022-10-04T05:27:35.030Z,1.40
2022-10-04T05:30:12.582Z,1.20
2022-10-04T05:32:58.358Z,1.17
2022-10-04T05:35:27.968Z,1.40
2022-10-04T05:38:07.331Z,1.30
2022-10-04T05:40:58.351Z,1.10
2022-10-04T05:43:32.983Z,1.20
2022-10-04T05:46:23.063Z,1.20
2022-10-04T05:48:55.020Z,1.38
2022-10-04T05:51:30.592Z,1.08
2022-10-04T05:54:01.235Z,1.40
2022-10-04T05:56:31.518Z,1.20
2022-10-04T05:59:22.424Z,1.40
2022-10-04T06:02:16.652Z,1.60
2022-10-04T06:05:19.336Z,1.00
2022-10-04T06:08:14.278Z,1.25
2022-10-04T06:10:52.398Z,1.75
2022-10-04T06:13:26.193Z,1.10
2022-10-04T06:16:32.156Z,1.00
2022-10-04T06:19:25.605Z,1.05
2022-10-04T06:22:13.832Z,1.23
2022-10-04T06:24:44.784Z,1.10
2022-10-04T06:27:29.572Z,1.15
2022-10-04T06:30:03.563Z,1.48
2022-10-04T06:33:08.290Z,1.20
2022-10-04T06:35:47.664Z,1.38
2022-10-04T06:38:26.752Z,1.30
2022-10-04T06:40:57.202Z,1.38
2022-10-04T06:43:24.581Z,1.25
2022-10-04T06:46:04.021Z,1.40
2022-10-04T06:49:02.919Z,1.35
2022-10-04T06:51:57.185Z,1.38
2022-10-04T06:54:43.288Z,1.50
2022-10-04T06:57:19.599Z,1.27
2022-10-04T07:00:15.492Z,1.40
2022-10-04T07:02:46.874Z,1.30
2022-10-04T07:05:33.336Z,1.20
2022-10-04T07:08:48.123Z,1.00
2022-10-04T07:11:28.026Z,1.23
2022-10-04T07:14:05.421Z,1.48
2022-10-04T07:16:47.248Z,1.30
2022-10-04T07:19:20.754Z,1.30
2022-10-04T07:22:06.858Z,1.17
2022-10-04T07:25:05.044Z,1.58
2022-10-04T07:28:20.632Z,1.30
2022-10-04T07:30:54.643Z,1.13
2022-10-04T07:33:27.745Z,1.10
2022-10-04T07:36:06.145Z,1.48
2022-10-04T07:38:38.382Z,1.00
2022-10-04T07:41:30.252Z,1.20
2022-10-04T07:44:04.551Z,1.15
2022-10-04T07:46:43.669Z,1.30
2022-10-04T07:49:20.409Z,1.15
2022-10-04T07:52:20.966Z,1.30
2022-10-04T07:55:17.155Z,1.17
2022-10-04T07:58:07.348Z,1.20
2022-10-04T08:01:05.532Z,0.95
2022-10-04T08:04:00.506Z,1.35
2022-10-04T08:06:44.302Z,1.30
2022-10-04T08:09:21.066Z,1.02
2022-10-04T08:12:02.985Z,1.30
2022-10-04T08:15:07.809Z,1.20
2022-10-04T08:18:01.768Z,1.40
2022-10-04T08:20:53.943Z,1.23
2022-10-04T08:24:17.920Z,1.40
2022-10-04T08:27:04.724Z,1.40
2022-10-04T08:29:47.917Z,1.20
2022-10-04T08:32:27.718Z,1.50
2022-10-04T08:35:28.938Z,1.23
2022-10-04T08:38:05.499Z,1.48
2022-10-04T08:41:03.370Z,1.20
2022-10-04T08:43:49.695Z,1.10
2022-10-04T08:46:41.509Z,1.40
2022-10-04T08:49:24.564Z,1.35
2022-10-04T08:52:19.570Z,1.40
2022-10-04T08:55:15.067Z,1.50
2022-10-04T08:58:14.115Z,1.50
2022-10-04T09:01:06.521Z,1.40
2022-10-04T09:03:42.824Z,1.10
2022-10-04T09:06:15.306Z,2.08
2022-10-04T09:09:07.299Z,1.48
2022-10-04T09:11:38.516Z,1.30
2022-10-04T09:14:11.858Z,1.33
2022-10-04T09:16:57.082Z,1.30
2022-10-04T09:19:44.506Z,1.40
2022-10-04T09:22:19.131Z,1.40
2022-10-04T09:25:14.383Z,1.40
2022-10-04T09:28:26.472Z,1.10
2022-10-04T09:30:53.970Z,1.30
2022-10-04T09:33:42.853Z,1.48
2022-10-04T09:36:58.456Z,1.27
2022-10-04T09:39:44.505Z,1.30
2022-10-04T09:42:39.988Z,1.58
2022-10-04T09:45:44.915Z,1.65
2022-10-04T09:48:29.917Z,1.40
2022-10-04T09:51:25.522Z,1.48
2022-10-04T09:53:58.877Z,1.35
2022-10-04T09:56:50.849Z,1.40
2022-10-04T09:59:46.296Z,1.48
2022-10-04T10:02:31.683Z,1.45
2022-10-04T10:05:44.414Z,1.70
2022-10-04T10:08:33.779Z,1.48
2022-10-04T10:12:01.015Z,1.60
2022-10-04T10:14:40.465Z,1.50
2022-10-04T10:17:29.560Z,1.60
2022-10-04T10:20:34.821Z,1.52
2022-10-04T10:23:24.115Z,1.73
2022-10-04T10:26:03.279Z,1.55
2022-10-04T10:28:33.533Z,1.42
2022-10-04T10:31:08.740Z,1.60
2022-10-04T10:33:38.272Z,1.45
2022-10-04T10:36:25.115Z,1.30
2022-10-04T10:39:17.481Z,1.48
2022-10-04T10:42:06.931Z,1.50
2022-10-04T10:45:09.430Z,1.50
2022-10-04T10:47:59.884Z,1.40
2022-10-04T10:51:01.490Z,1.87
2022-10-04T10:53:53.526Z,1.60
2022-10-04T10:56:47.947Z,1.70
2022-10-04T10:59:53.277Z,1.40
2022-10-04T11:02:49.409Z,1.40
2022-10-04T11:05:53.598Z,1.60
2022-10-04T11:08:48.670Z,1.50
2022-10-04T11:11:22.471Z,1.63
2022-10-04T11:14:11.939Z,1.65
2022-10-04T11:17:07.199Z,1.85
2022-10-04T11:20:03.595Z,1.75
2022-10-04T11:22:46.076Z,1.60
2022-10-04T11:25:35.243Z,1.83
2022-10-04T11:28:26.623Z,1.67
2022-10-04T11:31:24.404Z,1.80
2022-10-04T11:34:30.254Z,1.70
2022-10-04T11:37:19.017Z,1.83
2022-10-04T11:39:58.278Z,1.60
2022-10-04T11:42:50.478Z,1.80
2022-10-04T11:45:38.415Z,1.80
2022-10-04T11:48:26.526Z,1.65
2022-10-04T11:51:03.339Z,1.65
2022-10-04T11:54:04.865Z,1.77
2022-10-04T11:57:08.817Z,2.00
2022-10-04T12:00:16.276Z,1.60
2022-10-04T12:03:05.760Z,1.60
2022-10-04T12:05:51.847Z,1.83
2022-10-04T12:08:23.310Z,1.73
2022-10-04T12:11:27.097Z,1.80
2022-10-04T12:14:23.390Z,2.00
2022-10-04T12:17:25.324Z,1.70
2022-10-04T12:20:28.972Z,1.67
2022-10-04T12:23:31.248Z,1.90
2022-10-04T12:26:18.387Z,1.70
2022-10-04T12:29:03.495Z,1.73
2022-10-04T12:31:58.856Z,1.67
2022-10-04T12:34:37.834Z,1.70
2022-10-04T12:37:21.052Z,1.52
2022-10-04T12:40:03.352Z,1.77
2022-10-04T12:42:45.712Z,1.80
2022-10-04T12:45:19.529Z,1.60
2022-10-04T12:47:52.932Z,1.65
2022-10-04T12:50:45.067Z,1.63
2022-10-04T12:53:16.828Z,1.75
2022-10-04T12:55:47.746Z,1.80
2022-10-04T12:59:05.842Z,1.83
2022-10-04T13:02:00.693Z,1.70
2022-10-04T13:05:19.659Z,2.00
2022-10-04T13:07:58.114Z,1.70
2022-10-04T13:10:59.713Z,1.80
2022-10-04T13:13:59.005Z,1.65
2022-10-04T13:19:39.271Z,1.65
2022-10-04T13:22:56.599Z,1.60
2022-10-04T13:25:45.966Z,1.60
2022-10-04T13:28:21.585Z,1.48
2022-10-04T13:31:10.884Z,1.70
2022-10-04T13:33:50.740Z,1.50
2022-10-04T13:36:54.357Z,1.65
2022-10-04T13:39:35.698Z,1.80
2022-10-04T13:42:03.142Z,1.67
2022-10-04T13:45:04.173Z,1.70
2022-10-04T13:47:56.762Z,2.00
2022-10-04T13:50:41.004Z,1.98
2022-10-04T13:53:57.099Z,2.13
2022-10-04T13:56:46.416Z,1.70
2022-10-04T13:59:47.703Z,1.60
2022-10-04T14:05:38.057Z,1.55
2022-10-04T14:08:17.716Z,1.70
2022-10-04T14:11:13.716Z,1.67
2022-10-04T14:14:11.840Z,1.55
2022-10-04T14:17:10.631Z,1.52
2022-10-04T14:19:50.052Z,1.63
2022-10-04T14:22:51.807Z,1.65
2022-10-04T14:25:39.540Z,1.40
2022-10-04T14:28:28.548Z,1.50
2022-10-04T14:31:27.667Z,1.52
2022-10-04T14:34:15.811Z,1.50
2022-10-04T14:36:57.626Z,1.50
2022-10-04T14:39:46.658Z,1.60
2022-10-04T14:42:37.095Z,1.40
2022-10-04T14:45:20.463Z,1.85
2022-10-04T14:47:59.494Z,1.42
2022-10-04T14:50:36.207Z,2.00
2022-10-04T14:53:11.722Z,1.50
2022-10-04T14:55:49.314Z,1.67
2022-10-04T14:58:19.744Z,1.40
2022-10-04T15:01:07.092Z,1.60
2022-10-04T15:03:48.524Z,1.60
2022-10-04T15:06:28.105Z,1.77
2022-10-04T15:09:10.693Z,1.30
2022-10-04T15:11:41.396Z,1.50
2022-10-04T15:14:35.787Z,1.50
2022-10-04T15:17:09.800Z,1.40
2022-10-04T15:20:11.277Z,1.40
2022-10-04T15:22:44.284Z,1.48
2022-10-04T15:25:38.485Z,2.05
2022-10-04T15:28:30.085Z,1.50
2022-10-04T15:31:09.858Z,1.58
2022-10-04T15:33:55.220Z,1.60
2022-10-04T15:37:03.637Z,1.30
2022-10-04T15:39:46.259Z,1.35
2022-10-04T15:42:27.164Z,1.70
2022-10-04T15:44:57.754Z,1.80
2022-10-04T15:47:49.748Z,1.48
2022-10-04T15:50:54.924Z,1.83
2022-10-04T15:53:40.830Z,1.50
2022-10-04T15:56:42.943Z,1.60
2022-10-04T15:59:21.149Z,1.95
2022-10-04T16:01:57.744Z,1.40
2022-10-04T16:04:34.236Z,1.60
2022-10-04T16:07:30.908Z,1.33
2022-10-04T16:10:13.327Z,1.50
2022-10-04T16:13:01.737Z,1.30
2022-10-04T16:15:35.059Z,1.40
2022-10-04T16:18:05.673Z,1.90
2022-10-04T16:21:08.651Z,1.42
2022-10-04T16:23:37.466Z,1.70
2022-10-04T16:26:16.495Z,1.40
2022-10-04T16:29:34.869Z,1.50
2022-10-04T16:32:21.497Z,1.40
2022-10-04T16:35:08.554Z,1.50
2022-10-04T16:38:00.373Z,1.60
2022-10-04T16:40:57.299Z,1.45
2022-10-04T16:43:29.927Z,1.50
2022-10-04T16:46:03.517Z,1.45
2022-10-04T16:48:45.760Z,1.30
2022-10-04T16:51:19.348Z,1.40
2022-10-04T16:53:53.488Z,1.40
2022-10-04T16:56:31.032Z,1.30
2022-10-04T16:59:05.710Z,1.38
2022-10-04T17:01:49.664Z,1.33
2022-10-04T17:04:39.441Z,1.58
2022-10-04T17:07:09.571Z,1.10
2022-10-04T17:10:03.513Z,1.10
2022-10-04T17:12:46.993Z,1.48
2022-10-04T17:15:40.797Z,1.58
2022-10-04T17:18:25.171Z,1.45
2022-10-04T17:21:01.164Z,1.20
2022-10-04T17:23:54.303Z,1.40
2022-10-04T17:26:24.581Z,1.30
2022-10-04T17:29:07.820Z,1.10
2022-10-04T17:31:49.493Z,1.20
2022-10-04T17:34:36.336Z,1.30
2022-10-04T17:37:20.328Z,1.40
2022-10-04T17:40:13.703Z,1.33
2022-10-04T17:43:00.834Z,1.38
2022-10-04T17:45:43.696Z,1.42
2022-10-04T17:48:51.252Z,1.42
2022-10-04T17:51:46.160Z,1.42
2022-10-04T17:54:43.398Z,1.20
2022-10-04T17:57:25.993Z,1.10
2022-10-04T18:00:09.421Z,1.20
2022-10-04T18:02:49.993Z,1.20
2022-10-04T18:05:27.234Z,1.38
2022-10-04T18:08:11.169Z,1.20
2022-10-04T18:10:52.766Z,1.30
2022-10-04T18:13:41.628Z,1.10
2022-10-04T18:16:15.326Z,1.23
2022-10-04T18:18:46.146Z,1.40
2022-10-04T18:21:32.182Z,1.20
2022-10-04T18:24:21.285Z,1.45
2022-10-04T18:27:06.074Z,1.45
2022-10-04T18:29:39.375Z,1.15
2022-10-04T18:32:25.615Z,1.23
2022-10-04T18:34:58.433Z,1.30
2022-10-04T18:37:35.022Z,1.33
2022-10-04T18:40:16.398Z,1.40
2022-10-04T18:43:00.461Z,1.30
2022-10-04T18:45:34.526Z,1.17
2022-10-04T18:48:16.009Z,1.23
2022-10-04T18:50:48.634Z,1.40
2022-10-04T18:53:35.052Z,1.20
2022-10-04T18:56:08.034Z,1.45
2022-10-04T18:59:20.235Z,1.30
2022-10-04T19:02:18.222Z,1.08
2022-10-04T19:05:03.327Z,1.30
2022-10-04T19:07:49.527Z,1.63
2022-10-04T19:10:40.238Z,1.27
2022-10-04T19:13:26.192Z,1.40
2022-10-04T19:16:22.788Z,1.45
2022-10-04T19:19:05.882Z,1.40
2022-10-04T19:21:39.214Z,1.15
2022-10-04T19:24:37.956Z,1.30
2022-10-04T19:27:37.002Z,1.10
2022-10-04T19:30:42.237Z,1.58
2022-10-04T19:33:26.525Z,1.40
2022-10-04T19:36:18.905Z,1.42
2022-10-04T19:39:20.370Z,1.38
2022-10-04T19:42:17.826Z,0.98
2022-10-04T19:45:06.316Z,1.30
2022-10-04T19:47:58.949Z,1.52
2022-10-04T19:50:41.982Z,1.50
2022-10-04T19:53:18.630Z,1.40
2022-10-04T19:55:54.039Z,1.30
2022-10-04T19:58:41.899Z,1.45
2022-10-04T20:01:21.263Z,1.30
2022-10-04T20:04:08.339Z,1.35
2022-10-04T20:06:38.507Z,1.20
2022-10-04T20:09:26.227Z,1.50
2022-10-04T20:11:54.227Z,1.20
2022-10-04T20:14:21.665Z,1.40
2022-10-04T20:16:49.885Z,1.38
2022-10-04T20:19:29.370Z,1.45
2022-10-04T20:22:02.559Z,1.67
2022-10-04T20:24:41.753Z,1.35
2022-10-04T20:27:28.083Z,1.27
2022-10-04T20:29:57.186Z,1.70
2022-10-04T20:32:27.397Z,1.50
2022-10-04T20:34:56.543Z,1.70
2022-10-04T20:37:45.807Z,1.60
2022-10-04T20:40:25.279Z,1.50
2022-10-04T20:43:14.430Z,1.73
2022-10-04T20:45:54.533Z,1.73
2022-10-04T20:48:22.970Z,1.40
2022-10-04T20:50:52.371Z,1.55
2022-10-04T20:53:26.913Z,1.63
2022-10-04T20:56:19.238Z,1.70
2022-10-04T20:58:55.612Z,1.80
2022-10-04T21:01:37.712Z,1.88
2022-10-04T21:04:33.642Z,1.55
2022-10-04T21:07:03.510Z,1.75
2022-10-04T21:09:32.305Z,1.60
2022-10-04T21:12:01.537Z,1.63
2022-10-04T21:14:37.255Z,1.63
2022-10-04T21:17:25.566Z,1.80
2022-10-04T21:19:53.026Z,1.80
2022-10-04T21:22:26.222Z,1.80
2022-10-04T21:24:56.077Z,1.80
2022-10-04T21:27:31.920Z,1.70
2022-10-04T21:30:01.258Z,1.60
2022-10-04T21:32:34.504Z,1.90
2022-10-04T21:35:03.811Z,1.83
2022-10-04T21:37:32.255Z,1.73
2022-10-04T21:39:59.879Z,1.60
2022-10-04T21:42:27.338Z,1.75
2022-10-04T21:44:54.851Z,1.77
2022-10-04T21:47:22.362Z,1.70
2022-10-04T21:49:54.041Z,1.70
2022-10-04T21:52:21.547Z,1.90
2022-10-04T21:54:49.045Z,1.52
2022-10-04T21:57:16.553Z,1.85
2022-10-04T21:59:43.982Z,1.67
2022-10-04T22:02:11.511Z,1.73
2022-10-04T22:04:38.947Z,1.80
2022-10-04T22:07:06.362Z,2.03
2022-10-04T22:09:34.702Z,1.52
2022-10-04T22:12:02.236Z,1.88
2022-10-04T22:14:29.684Z,1.75
2022-10-04T22:16:57.136Z,1.92
2022-10-04T22:19:24.650Z,1.80
2022-10-04T22:21:52.204Z,1.98
2022-10-04T22:24:21.144Z,1.70
2022-10-04T22:26:49.533Z,1.77
2022-10-04T22:29:18.991Z,1.85
2022-10-04T22:31:51.083Z,1.70
2022-10-04T22:34:21.296Z,1.75
2022-10-04T22:36:51.499Z,1.90
2022-10-04T22:39:21.094Z,1.83
2022-10-04T22:41:58.387Z,1.88
2022-10-04T22:44:38.521Z,1.90
2022-10-04T22:47:14.500Z,1.90
2022-10-04T22:49:47.343Z,2.08
2022-10-04T22:52:22.621Z,2.00
2022-10-04T22:54:55.950Z,1.83
2022-10-04T22:57:25.133Z,1.80
2022-10-04T22:59:53.383Z,1.70
2022-10-04T23:02:29.531Z,1.98
2022-10-04T23:05:17.002Z,1.90
2022-10-04T23:07:45.598Z,1.80
2022-10-04T23:10:15.821Z,1.80
2022-10-04T23:12:47.822Z,2.00
2022-10-04T23:15:19.234Z,1.98
2022-10-04T23:17:54.446Z,1.75
2022-10-04T23:20:22.722Z,1.90
2022-10-04T23:22:53.277Z,1.98
2022-10-04T23:25:28.888Z,1.80
2022-10-04T23:28:03.198Z,1.75
2022-10-04T23:30:30.664Z,1.80
2022-10-04T23:33:00.639Z,1.88
2022-10-04T23:35:33.047Z,1.92
2022-10-04T23:38:03.781Z,1.80
2022-10-04T23:40:31.382Z,1.90
2022-10-04T23:43:02.917Z,2.03
2022-10-04T23:45:31.445Z,2.00
2022-10-04T23:48:01.476Z,1.95
2022-10-04T23:50:34.116Z,1.85
2022-10-04T23:53:04.788Z,1.83
2022-10-04T23:55:41.735Z,2.08
2022-10-04T23:58:24.300Z,1.98
